Terminal Aerodrome Forecast
Issued by NWS

Home | Current Version | Previous Version | Text Only | Print | Product List | Glossary On
Versions: 1 2 3 4 5 6 7 8 9 10 11 12
000
FTUS46 KSGX 301123
TAFONT
TAF
KONT 301123Z 3012/3118 VRB05KT P6SM FEW150
     FM302000 26011G18KT P6SM FEW100
     FM310500 VRB05KT P6SM FEW150=

USA.gov is the U.S. government's official web portal to all federal, state and local government web resources and services.